Libenge Airport


Codes: FZFA/LIE
Name: Libenge Airport
City: Libenge
Country: Congo [DRC]
Elevation: 1125 ft.

Photos at Libenge Airport


   Photos courtesy of SpottingLog. You can add your own sightings and photos by signing up for a free trial today.



No photos found.

Weather at Libenge Airport


Time (UTC)DescriptionTempratureWindCloud coverageVisibilityPressureHumidity
25-Jun-2024 12:00Broken Clouds37°C2 mph, E57%10000m1008hPa34%
25-Jun-2024 15:00Broken Clouds34°C2 mph, SE71%10000m1008hPa46%
25-Jun-2024 18:00Light Rain28°C4 mph, SW86%10000m1008hPa70%
25-Jun-2024 21:00Light Rain22°C2 mph, SE91%10000m1011hPa98%
26-Jun-2024 00:00Overcast Clouds22°C2 mph, SW96%10000m1010hPa97%
26-Jun-2024 03:00Overcast Clouds22°C2 mph, NW100%10000m1009hPa97%
26-Jun-2024 06:00Light Rain23°C0 mph, NE100%10000m1012hPa96%
26-Jun-2024 09:00Broken Clouds33°C0 mph, SW83%10000m1011hPa49%
26-Jun-2024 12:00Broken Clouds32°C4 mph, SE77%10000m1008hPa50%
26-Jun-2024 15:00Few Clouds33°C4 mph, S22%10000m1006hPa40%
26-Jun-2024 18:00Scattered Clouds25°C2 mph, W38%10000m1008hPa79%
26-Jun-2024 21:00Clear Sky23°C0 mph, W8%10000m1010hPa86%
27-Jun-2024 00:00Clear Sky23°C2 mph, SW7%10000m1009hPa85%
27-Jun-2024 03:00Broken Clouds22°C2 mph, SW51%10000m1009hPa86%
27-Jun-2024 06:00Light Rain25°C2 mph, W66%10000m1011hPa75%
27-Jun-2024 09:00Broken Clouds30°C4 mph, NW84%10000m1011hPa55%
27-Jun-2024 12:00Overcast Clouds33°C2 mph, W92%10000m1009hPa48%
27-Jun-2024 15:00Light Rain33°C4 mph, NW64%10000m1007hPa45%
27-Jun-2024 18:00Light Rain23°C2 mph, W82%10000m1009hPa96%
27-Jun-2024 21:00Overcast Clouds22°C0 mph, SW100%10000m1011hPa96%
28-Jun-2024 00:00Overcast Clouds22°C2 mph, NW95%10000m1011hPa97%
28-Jun-2024 03:00Moderate Rain21°C2 mph, N91%10000m1011hPa100%
28-Jun-2024 06:00Overcast Clouds22°C4 mph, N94%10000m1012hPa98%
28-Jun-2024 09:00Overcast Clouds23°C2 mph, N100%10000m1013hPa93%
28-Jun-2024 12:00Overcast Clouds24°C2 mph, N100%10000m1011hPa85%
28-Jun-2024 15:00Overcast Clouds30°C4 mph, NW100%10000m1010hPa57%
28-Jun-2024 18:00Overcast Clouds23°C4 mph, N99%10000m1011hPa85%
28-Jun-2024 21:00Overcast Clouds22°C2 mph, NW93%10000m1013hPa92%
29-Jun-2024 00:00Overcast Clouds22°C2 mph, N97%10000m1012hPa88%
29-Jun-2024 03:00Light Rain21°C2 mph, N100%10000m1012hPa94%
29-Jun-2024 06:00Overcast Clouds23°C2 mph, N100%10000m1013hPa89%
29-Jun-2024 09:00Overcast Clouds25°C4 mph, NW100%10000m1013hPa78%
29-Jun-2024 12:00Overcast Clouds32°C2 mph, NE98%10000m1010hPa49%
29-Jun-2024 15:00Overcast Clouds32°C7 mph, NE100%10000m1008hPa45%
29-Jun-2024 18:00Overcast Clouds23°C2 mph, N85%10000m1010hPa81%
29-Jun-2024 21:00Scattered Clouds22°C2 mph, SE35%10000m1012hPa84%
30-Jun-2024 00:00Light Rain21°C0 mph, NE56%6092m1012hPa95%
30-Jun-2024 03:00Light Rain21°C2 mph, W100%10000m1012hPa98%
30-Jun-2024 06:00Overcast Clouds22°C0 mph, NW99%10000m1013hPa94%
30-Jun-2024 09:00Overcast Clouds32°C2 mph, NW100%10000m1013hPa51%